Marfa, TX

11:48 PM CDT on August 26, 2016 (GMT -0500)
APRSWXNET | | Change Station
Active Advisory: Hydrologic Statement

Elev 4908 ft 30.37 °N, 103.78 °W | Updated 28 minutes ago

Clear
Clear
65 °F
Feels Like 65 °F
N
0
Wind Variable Wind from East
Gusts 2.0 mph

Today
High -- | Low -- °F
--% Chance of Precip.
Yesterday
High -- | Low -- °F
Precip. -- in
Pressure 30.23 in
Visibility 10.0 miles
Clouds Clear
Dew Point 58 °F
Humidity 77%
Rainfall in
Snow Depth Not available.
7:29 AM 8:25 PM
Waning Crescent, 28% visible
METAR KE38 270435Z AUTO 00000KT 10SM CLR 19/15 A3023 RMK AO2 T01850152
Pressure 30.23 in
Visibility 10.0 miles
Clouds Clear
Dew Point 58 °F
Humidity 77%
Rainfall in
Snow Depth Not available.
7:29 AM 8:25 PM
Waning Crescent, 28% visible
METAR KE38 270435Z AUTO 00000KT 10SM CLR 19/15 A3023 RMK AO2 T01850152

10-Day Weather Forecast

Almanac

Astronomy

Aug. 26, 2016 Rise Set
Actual Time
Civil Twilight
Nautical Twilight
Astronomical Twilight
Moon
Length of Visible Light
Length of Day
Tomorrow will be .
, % of the Moon is Illuminated

Today's Extremes

State Highs State Lows

Community

WunderPhotos

Upload Photos

1,935,299 photos uploaded!

WunderBlog® & News

Nearby

Air Quality

  Air Quality AQ Index Pollutant
Not available.

Snow Depth

Station Depth Elevation

Earthquake Activity

City Distance Mag. Time & Date
Minimum magnitude displayed is 2.5.

Coastal Water Temperatures

Place Temperature

Stations

Nearby Weather Stations

Station Location Temp. Windchill Dew Point Humidity Wind Precip. Elev Updated Type
                   

Watches & Warnings

Hydrologic Statement
Issued: 8:11 AM CDT Aug. 26, 2016 – National Weather Service

Forecast information for
Rio Grande at Presidio international bridge.
* At 7am Friday the stage was 13.5 feet (4.1 meters).
* No flooding is currently forecast.
* Flood stage is 15.5 feet (4.7 meters).
* Forecast... the river will rise to near 14.6 feet (4.5 meters) this
afternoon.
* Impact... at 15.5 feet (4.7 meters), the river reaches minor flood
stage, and flooding between the levees occurs. No damage to
structures is expected.

This crest compares to a previous crest of 15.5 feet (4.7 meters) on
Sep 20 2014.


Below are the latest river stages and forecasts (feet):

                   bf fld observed forecast
location stg stg stage day time Fri Fri Sat Sat
                                                1pm 7pm 1am 7am
Presidio inter 12.0 15.5 13.5 Fri 7 am 14.6 12.5 10.7 8.8

Below are the latest river stages and forecasts (meters):

                   bf fld observed forecast
location stg stg stage day time Fri Fri Sat Sat
                                                1pm 7pm 1am 7am
Presidio inter 3.7 4.7 4.1 Fri 7 am 4.5 3.8 3.3 2.7


Lat... Lon 2951 10446 2963 10437 2961 10430 2945 10435 2949 10443